sensor_id;sensor_type;location;lat;lon;timestamp;pressure;altitude;pressure_sealevel;temperature;humidity
9474;BME280;8865;47.636;7.692;2022-09-06T00:00:10;98413.28;;;19.34;100.00
9474;BME280;8865;47.636;7.692;2022-09-06T00:02:36;98403.22;;;19.30;100.00
9474;BME280;8865;47.636;7.692;2022-09-06T00:05:03;98401.28;;;19.23;100.00
9474;BME280;8865;47.636;7.692;2022-09-06T00:07:29;98412.09;;;19.22;100.00
9474;BME280;8865;47.636;7.692;2022-09-06T00:09:55;98411.47;;;19.20;100.00
9474;BME280;8865;47.636;7.692;2022-09-06T00:12:22;98400.75;;;19.13;100.00
9474;BME280;8865;47.636;7.692;2022-09-06T00:14:49;98409.91;;;19.11;100.00
9474;BME280;8865;47.636;7.692;2022-09-06T00:17:15;98408.25;;;19.09;100.00
9474;BME280;8865;47.636;7.692;2022-09-06T00:19:41;98409.44;;;19.07;100.00
9474;BME280;8865;47.636;7.692;2022-09-06T00:22:07;98412.28;;;19.05;100.00
9474;BME280;8865;47.636;7.692;2022-09-06T00:24:33;98412.63;;;19.02;100.00
9474;BME280;8865;47.636;7.692;2022-09-06T00:27:06;98421.16;;;18.98;100.00
9474;BME280;8865;47.636;7.692;2022-09-06T00:29:32;98428.75;;;19.01;100.00
9474;BME280;8865;47.636;7.692;2022-09-06T00:31:58;98427.50;;;18.97;100.00
9474;BME280;8865;47.636;7.692;2022-09-06T00:34:24;98430.97;;;18.97;100.00
9474;BME280;8865;47.636;7.692;2022-09-06T00:36:50;98437.25;;;18.96;100.00
9474;BME280;8865;47.636;7.692;2022-09-06T00:39:16;98432.13;;;18.95;100.00
9474;BME280;8865;47.636;7.692;2022-09-06T00:41:42;98428.19;;;18.90;100.00
9474;BME280;8865;47.636;7.692;2022-09-06T00:44:08;98431.03;;;18.89;100.00
9474;BME280;8865;47.636;7.692;2022-09-06T00:46:35;98429.41;;;18.88;100.00
9474;BME280;8865;47.636;7.692;2022-09-06T00:49:40;98437.72;;;18.85;100.00
9474;BME280;8865;47.636;7.692;2022-09-06T00:52:02;98448.47;;;18.83;100.00
9474;BME280;8865;47.636;7.692;2022-09-06T00:54:29;98439.84;;;18.81;100.00
9474;BME280;8865;47.636;7.692;2022-09-06T00:56:56;98444.34;;;18.81;100.00
9474;BME280;8865;47.636;7.692;2022-09-06T00:59:30;98447.00;;;18.81;100.00
9474;BME280;8865;47.636;7.692;2022-09-06T01:01:58;98447.81;;;18.81;100.00
9474;BME280;8865;47.636;7.692;2022-09-06T01:04:25;98450.47;;;18.81;100.00
9474;BME280;8865;47.636;7.692;2022-09-06T01:17:43;98450.91;;;18.93;100.00
9474;BME280;8865;47.636;7.692;2022-09-06T01:28:47;98454.38;;;18.94;100.00
9474;BME280;8865;47.636;7.692;2022-09-06T01:34:17;98451.44;;;18.88;100.00
9474;BME280;8865;47.636;7.692;2022-09-06T01:36:48;98453.63;;;18.85;100.00
9474;BME280;8865;47.636;7.692;2022-09-06T01:39:27;98448.97;;;18.87;100.00
9474;BME280;8865;47.636;7.692;2022-09-06T01:41:55;98450.81;;;18.86;100.00
9474;BME280;8865;47.636;7.692;2022-09-06T01:44:23;98450.81;;;18.86;100.00
9474;BME280;8865;47.636;7.692;2022-09-06T01:47:16;98462.41;;;18.85;100.00
9474;BME280;8865;47.636;7.692;2022-09-06T01:52:55;98464.53;;;18.90;100.00
9474;BME280;8865;47.636;7.692;2022-09-06T01:56:11;98453.56;;;18.93;100.00
9474;BME280;8865;47.636;7.692;2022-09-06T02:01:28;98460.41;;;19.02;100.00
9474;BME280;8865;47.636;7.692;2022-09-06T02:06:51;98470.31;;;19.08;100.00
9474;BME280;8865;47.636;7.692;2022-09-06T02:09:21;98464.66;;;19.12;100.00
9474;BME280;8865;47.636;7.692;2022-09-06T02:11:54;98460.81;;;19.14;100.00
9474;BME280;8865;47.636;7.692;2022-09-06T02:14:34;98458.34;;;19.13;100.00
9474;BME280;8865;47.636;7.692;2022-09-06T02:17:03;98460.44;;;19.17;100.00
9474;BME280;8865;47.636;7.692;2022-09-06T02:19:35;98464.41;;;19.21;100.00
9474;BME280;8865;47.636;7.692;2022-09-06T02:22:07;98462.09;;;19.18;100.00
9474;BME280;8865;47.636;7.692;2022-09-06T02:24:35;98465.75;;;19.17;100.00
9474;BME280;8865;47.636;7.692;2022-09-06T02:27:04;98462.00;;;19.12;100.00
9474;BME280;8865;47.636;7.692;2022-09-06T02:29:30;98459.06;;;19.06;100.00
9474;BME280;8865;47.636;7.692;2022-09-06T02:32:02;98467.03;;;19.06;100.00
9474;BME280;8865;47.636;7.692;2022-09-06T02:34:29;98466.75;;;19.01;100.00
9474;BME280;8865;47.636;7.692;2022-09-06T02:36:56;98460.25;;;19.04;100.00
9474;BME280;8865;47.636;7.692;2022-09-06T02:39:22;98465.56;;;19.04;100.00
9474;BME280;8865;47.636;7.692;2022-09-06T02:41:49;98464.56;;;19.05;100.00
9474;BME280;8865;47.636;7.692;2022-09-06T02:44:15;98460.25;;;19.04;100.00
9474;BME280;8865;47.636;7.692;2022-09-06T02:46:41;98455.13;;;19.02;100.00
9474;BME280;8865;47.636;7.692;2022-09-06T02:49:07;98461.44;;;19.01;100.00
9474;BME280;8865;47.636;7.692;2022-09-06T02:51:37;98455.47;;;18.99;100.00
9474;BME280;8865;47.636;7.692;2022-09-06T02:54:04;98450.72;;;18.95;100.00
9474;BME280;8865;47.636;7.692;2022-09-06T02:56:30;98445.78;;;18.91;100.00
9474;BME280;8865;47.636;7.692;2022-09-06T02:58:59;98444.28;;;18.89;100.00
9474;BME280;8865;47.636;7.692;2022-09-06T03:01:25;98435.22;;;18.83;100.00
9474;BME280;8865;47.636;7.692;2022-09-06T03:03:51;98438.03;;;18.82;100.00
9474;BME280;8865;47.636;7.692;2022-09-06T03:06:17;98435.09;;;18.77;100.00
9474;BME280;8865;47.636;7.692;2022-09-06T03:08:43;98441.78;;;18.72;100.00
9474;BME280;8865;47.636;7.692;2022-09-06T03:11:09;98432.53;;;18.68;100.00
9474;BME280;8865;47.636;7.692;2022-09-06T03:13:35;98442.38;;;18.60;100.00
9474;BME280;8865;47.636;7.692;2022-09-06T03:16:01;98444.56;;;18.56;100.00
9474;BME280;8865;47.636;7.692;2022-09-06T03:18:29;98435.50;;;18.50;100.00
9474;BME280;8865;47.636;7.692;2022-09-06T03:20:55;98435.22;;;18.45;100.00
9474;BME280;8865;47.636;7.692;2022-09-06T03:23:24;98437.59;;;18.40;100.00
9474;BME280;8865;47.636;7.692;2022-09-06T03:25:51;98434.09;;;18.39;100.00
9474;BME280;8865;47.636;7.692;2022-09-06T03:28:18;98445.22;;;18.35;100.00
9474;BME280;8865;47.636;7.692;2022-09-06T03:30:45;98439.94;;;18.35;100.00
9474;BME280;8865;47.636;7.692;2022-09-06T03:33:12;98441.41;;;18.37;100.00
9474;BME280;8865;47.636;7.692;2022-09-06T03:35:38;98435.66;;;18.34;100.00
9474;BME280;8865;47.636;7.692;2022-09-06T03:38:04;98433.19;;;18.32;100.00
9474;BME280;8865;47.636;7.692;2022-09-06T03:40:31;98444.13;;;18.29;100.00
9474;BME280;8865;47.636;7.692;2022-09-06T03:42:57;98444.13;;;18.29;100.00
9474;BME280;8865;47.636;7.692;2022-09-06T03:45:23;98439.81;;;18.28;100.00
9474;BME280;8865;47.636;7.692;2022-09-06T03:47:49;98437.53;;;18.25;100.00
9474;BME280;8865;47.636;7.692;2022-09-06T03:50:14;98446.66;;;18.23;100.00
9474;BME280;8865;47.636;7.692;2022-09-06T03:52:40;98443.72;;;18.17;100.00
9474;BME280;8865;47.636;7.692;2022-09-06T03:55:07;98448.56;;;18.14;100.00
9474;BME280;8865;47.636;7.692;2022-09-06T03:57:33;98447.06;;;18.11;100.00
9474;BME280;8865;47.636;7.692;2022-09-06T03:59:59;98455.38;;;18.08;100.00
9474;BME280;8865;47.636;7.692;2022-09-06T04:02:25;98464.97;;;18.09;100.00
9474;BME280;8865;47.636;7.692;2022-09-06T04:04:51;98468.97;;;18.05;100.00
9474;BME280;8865;47.636;7.692;2022-09-06T04:07:21;98463.03;;;18.03;100.00
9474;BME280;8865;47.636;7.692;2022-09-06T04:09:47;98472.97;;;18.01;100.00
9474;BME280;8865;47.636;7.692;2022-09-06T04:12:14;98464.38;;;17.99;100.00
9474;BME280;8865;47.636;7.692;2022-09-06T04:14:40;98470.38;;;17.93;100.00
9474;BME280;8865;47.636;7.692;2022-09-06T04:17:06;98474.19;;;17.90;100.00
9474;BME280;8865;47.636;7.692;2022-09-06T04:19:32;98468.22;;;17.88;100.00
9474;BME280;8865;47.636;7.692;2022-09-06T04:21:59;98469.06;;;17.89;100.00
9474;BME280;8865;47.636;7.692;2022-09-06T04:24:25;98470.38;;;17.84;100.00
9474;BME280;8865;47.636;7.692;2022-09-06T04:26:51;98473.00;;;17.84;100.00
9474;BME280;8865;47.636;7.692;2022-09-06T04:29:18;98475.84;;;17.83;100.00
9474;BME280;8865;47.636;7.692;2022-09-06T04:31:44;98479.00;;;17.78;100.00
9474;BME280;8865;47.636;7.692;2022-09-06T04:34:10;98471.22;;;17.77;100.00
9474;BME280;8865;47.636;7.692;2022-09-06T04:36:36;98470.94;;;17.72;100.00
9474;BME280;8865;47.636;7.692;2022-09-06T04:39:02;98473.59;;;17.72;100.00
9474;BME280;8865;47.636;7.692;2022-09-06T04:41:28;98484.00;;;17.73;100.00
9474;BME280;8865;47.636;7.692;2022-09-06T04:43:54;98479.69;;;17.72;100.00
9474;BME280;8865;47.636;7.692;2022-09-06T04:46:23;98486.81;;;17.72;100.00
9474;BME280;8865;47.636;7.692;2022-09-06T04:48:50;98480.88;;;17.70;100.00
9474;BME280;8865;47.636;7.692;2022-09-06T04:51:17;98489.81;;;17.68;100.00
9474;BME280;8865;47.636;7.692;2022-09-06T04:53:44;98488.34;;;17.66;100.00
9474;BME280;8865;47.636;7.692;2022-09-06T04:56:17;98498.13;;;17.65;100.00
9474;BME280;8865;47.636;7.692;2022-09-06T04:58:45;98492.19;;;17.63;100.00
9474;BME280;8865;47.636;7.692;2022-09-06T05:01:11;98492.34;;;17.62;100.00
9474;BME280;8865;47.636;7.692;2022-09-06T05:03:38;98493.50;;;17.59;100.00
9474;BME280;8865;47.636;7.692;2022-09-06T05:06:20;98489.69;;;17.62;100.00
9474;BME280;8865;47.636;7.692;2022-09-06T05:08:47;98497.31;;;17.65;100.00
9474;BME280;8865;47.636;7.692;2022-09-06T05:11:13;98499.28;;;17.63;100.00
9474;BME280;8865;47.636;7.692;2022-09-06T05:13:39;98498.13;;;17.65;100.00
9474;BME280;8865;47.636;7.692;2022-09-06T05:16:07;98504.72;;;17.70;100.00
9474;BME280;8865;47.636;7.692;2022-09-06T05:18:34;98504.91;;;17.68;100.00
9474;BME280;8865;47.636;7.692;2022-09-06T05:21:00;98505.19;;;17.73;100.00
9474;BME280;8865;47.636;7.692;2022-09-06T05:23:27;98510.16;;;17.76;100.00
9474;BME280;8865;47.636;7.692;2022-09-06T05:25:53;98514.78;;;17.82;100.00
9474;BME280;8865;47.636;7.692;2022-09-06T05:28:20;98506.78;;;17.91;100.00
9474;BME280;8865;47.636;7.692;2022-09-06T05:30:46;98516.41;;;17.92;100.00
9474;BME280;8865;47.636;7.692;2022-09-06T05:33:17;98509.94;;;17.94;100.00
9474;BME280;8865;47.636;7.692;2022-09-06T05:35:44;98512.06;;;17.99;100.00
9474;BME280;8865;47.636;7.692;2022-09-06T05:38:10;98517.22;;;18.00;100.00
9474;BME280;8865;47.636;7.692;2022-09-06T05:40:36;98515.03;;;18.04;100.00
9474;BME280;8865;47.636;7.692;2022-09-06T05:43:02;98507.56;;;18.08;100.00
9474;BME280;8865;47.636;7.692;2022-09-06T05:45:28;98509.53;;;18.14;100.00
9474;BME280;8865;47.636;7.692;2022-09-06T05:47:54;98509.81;;;18.19;100.00
9474;BME280;8865;47.636;7.692;2022-09-06T05:50:20;98513.09;;;18.21;100.00
9474;BME280;8865;47.636;7.692;2022-09-06T05:52:46;98524.03;;;18.26;100.00
9474;BME280;8865;47.636;7.692;2022-09-06T05:55:12;98521.97;;;18.36;100.00
9474;BME280;8865;47.636;7.692;2022-09-06T05:57:38;98524.56;;;18.45;100.00
9474;BME280;8865;47.636;7.692;2022-09-06T06:00:04;98522.31;;;18.56;100.00
9474;BME280;8865;47.636;7.692;2022-09-06T06:02:31;98524.66;;;18.74;100.00
9474;BME280;8865;47.636;7.692;2022-09-06T06:04:57;98520.09;;;18.91;100.00
9474;BME280;8865;47.636;7.692;2022-09-06T06:07:23;98518.28;;;19.07;100.00
9474;BME280;8865;47.636;7.692;2022-09-06T06:09:49;98513.19;;;19.20;100.00
9474;BME280;8865;47.636;7.692;2022-09-06T06:12:15;98513.41;;;19.34;100.00
9474;BME280;8865;47.636;7.692;2022-09-06T06:14:41;98509.09;;;19.48;100.00
9474;BME280;8865;47.636;7.692;2022-09-06T06:17:07;98507.69;;;19.52;100.00
9474;BME280;8865;47.636;7.692;2022-09-06T06:19:33;98513.94;;;19.59;100.00
9474;BME280;8865;47.636;7.692;2022-09-06T06:21:59;98510.91;;;19.62;100.00
9474;BME280;8865;47.636;7.692;2022-09-06T06:24:25;98501.75;;;19.65;100.00
9474;BME280;8865;47.636;7.692;2022-09-06T06:26:51;98499.28;;;19.63;100.00
9474;BME280;8865;47.636;7.692;2022-09-06T06:29:17;98506.41;;;19.62;100.00
9474;BME280;8865;47.636;7.692;2022-09-06T06:31:44;98502.66;;;19.57;100.00
9474;BME280;8865;47.636;7.692;2022-09-06T06:34:10;98510.09;;;19.61;100.00
9474;BME280;8865;47.636;7.692;2022-09-06T06:36:36;98516.41;;;19.60;100.00
9474;BME280;8865;47.636;7.692;2022-09-06T06:39:04;98530.13;;;19.64;100.00
9474;BME280;8865;47.636;7.692;2022-09-06T06:41:31;98527.22;;;19.59;100.00
9474;BME280;8865;47.636;7.692;2022-09-06T06:44:00;98534.00;;;19.61;100.00
9474;BME280;8865;47.636;7.692;2022-09-06T06:46:36;98525.13;;;19.69;100.00
9474;BME280;8865;47.636;7.692;2022-09-06T06:49:03;98526.19;;;19.75;100.00
9474;BME280;8865;47.636;7.692;2022-09-06T06:51:31;98517.78;;;19.86;100.00
9474;BME280;8865;47.636;7.692;2022-09-06T06:53:58;98518.31;;;19.96;100.00
9474;BME280;8865;47.636;7.692;2022-09-06T06:56:27;98501.13;;;20.14;100.00
9474;BME280;8865;47.636;7.692;2022-09-06T06:58:58;98503.56;;;20.30;100.00
9474;BME280;8865;47.636;7.692;2022-09-06T07:01:26;98498.25;;;20.52;100.00
9474;BME280;8865;47.636;7.692;2022-09-06T07:03:52;98501.59;;;20.82;100.00
9474;BME280;8865;47.636;7.692;2022-09-06T07:06:19;98494.56;;;21.25;100.00
9474;BME280;8865;47.636;7.692;2022-09-06T07:08:46;98490.25;;;21.58;100.00
9474;BME280;8865;47.636;7.692;2022-09-06T07:11:14;98483.97;;;21.73;100.00
9474;BME280;8865;47.636;7.692;2022-09-06T07:13:40;98484.63;;;21.82;100.00
9474;BME280;8865;47.636;7.692;2022-09-06T07:18:33;98493.81;;;21.79;100.00
9474;BME280;8865;47.636;7.692;2022-09-06T07:20:59;98498.31;;;21.72;100.00
9474;BME280;8865;47.636;7.692;2022-09-06T07:23:25;98503.81;;;21.64;100.00
9474;BME280;8865;47.636;7.692;2022-09-06T07:25:52;98507.59;;;21.48;100.00
9474;BME280;8865;47.636;7.692;2022-09-06T07:28:18;98501.78;;;21.37;100.00
9474;BME280;8865;47.636;7.692;2022-09-06T07:30:44;98518.31;;;21.26;100.00
9474;BME280;8865;47.636;7.692;2022-09-06T07:33:11;98511.69;;;21.15;100.00
9474;BME280;8865;47.636;7.692;2022-09-06T07:35:37;98506.34;;;21.09;100.00
9474;BME280;8865;47.636;7.692;2022-09-06T07:38:03;98505.47;;;21.01;100.00
9474;BME280;8865;47.636;7.692;2022-09-06T07:40:29;98497.16;;;20.90;100.00
9474;BME280;8865;47.636;7.692;2022-09-06T07:42:57;98494.00;;;20.79;100.00
9474;BME280;8865;47.636;7.692;2022-09-06T07:45:23;98494.34;;;20.69;100.00
9474;BME280;8865;47.636;7.692;2022-09-06T07:47:56;98491.69;;;20.69;100.00
9474;BME280;8865;47.636;7.692;2022-09-06T07:50:25;98489.44;;;20.73;100.00
9474;BME280;8865;47.636;7.692;2022-09-06T07:52:51;98490.56;;;20.85;100.00
9474;BME280;8865;47.636;7.692;2022-09-06T07:55:17;98489.47;;;21.01;100.00
9474;BME280;8865;47.636;7.692;2022-09-06T07:57:43;98481.41;;;21.23;100.00
9474;BME280;8865;47.636;7.692;2022-09-06T08:00:09;98495.97;;;21.55;100.00
9474;BME280;8865;47.636;7.692;2022-09-06T08:02:36;98503.97;;;22.04;100.00
9474;BME280;8865;47.636;7.692;2022-09-06T08:05:03;98505.56;;;22.53;100.00
9474;BME280;8865;47.636;7.692;2022-09-06T08:07:29;98487.28;;;22.97;100.00
9474;BME280;8865;47.636;7.692;2022-09-06T08:09:55;98486.19;;;23.45;100.00
9474;BME280;8865;47.636;7.692;2022-09-06T08:12:21;98490.91;;;24.08;100.00
9474;BME280;8865;47.636;7.692;2022-09-06T08:14:47;98482.69;;;24.41;100.00
9474;BME280;8865;47.636;7.692;2022-09-06T08:17:13;98470.03;;;24.55;100.00
9474;BME280;8865;47.636;7.692;2022-09-06T08:19:39;98456.22;;;24.58;100.00
9474;BME280;8865;47.636;7.692;2022-09-06T08:22:05;98446.56;;;24.57;100.00
9474;BME280;8865;47.636;7.692;2022-09-06T08:24:31;98450.06;;;24.58;100.00
9474;BME280;8865;47.636;7.692;2022-09-06T08:27:01;98451.72;;;24.59;100.00
9474;BME280;8865;47.636;7.692;2022-09-06T08:29:27;98463.66;;;24.56;100.00
9474;BME280;8865;47.636;7.692;2022-09-06T08:31:53;98467.84;;;24.46;100.00
9474;BME280;8865;47.636;7.692;2022-09-06T08:34:19;98466.75;;;24.53;100.00
9474;BME280;8865;47.636;7.692;2022-09-06T08:36:45;98464.25;;;24.58;100.00
9474;BME280;8865;47.636;7.692;2022-09-06T08:39:11;98464.22;;;24.65;100.00
9474;BME280;8865;47.636;7.692;2022-09-06T08:44:36;98458.47;;;24.87;100.00
9474;BME280;8865;47.636;7.692;2022-09-06T08:47:09;98466.56;;;25.05;100.00
9474;BME280;8865;47.636;7.692;2022-09-06T08:49:39;98469.94;;;25.19;100.00
9474;BME280;8865;47.636;7.692;2022-09-06T08:54:47;98459.47;;;25.55;100.00
9474;BME280;8865;47.636;7.692;2022-09-06T08:57:30;98462.00;;;25.68;100.00
9474;BME280;8865;47.636;7.692;2022-09-06T09:00:03;98461.66;;;25.76;100.00
9474;BME280;8865;47.636;7.692;2022-09-06T09:03:03;98450.13;;;25.76;100.00
9474;BME280;8865;47.636;7.692;2022-09-06T09:05:33;98440.56;;;25.80;100.00
9474;BME280;8865;47.636;7.692;2022-09-06T09:11:22;98446.41;;;26.37;100.00
9474;BME280;8865;47.636;7.692;2022-09-06T09:14:24;98460.63;;;27.16;100.00
9474;BME280;8865;47.636;7.692;2022-09-06T09:16:54;98461.84;;;28.01;100.00
9474;BME280;8865;47.636;7.692;2022-09-06T09:19:21;98451.59;;;28.15;100.00
9474;BME280;8865;47.636;7.692;2022-09-06T09:21:47;98442.50;;;28.50;100.00
9474;BME280;8865;47.636;7.692;2022-09-06T09:24:14;98444.69;;;28.19;100.00
9474;BME280;8865;47.636;7.692;2022-09-06T09:26:49;98431.78;;;28.21;100.00
9474;BME280;8865;47.636;7.692;2022-09-06T09:29:18;98427.19;;;28.05;100.00
9474;BME280;8865;47.636;7.692;2022-09-06T09:31:54;98435.44;;;28.15;100.00
9474;BME280;8865;47.636;7.692;2022-09-06T09:39:47;98419.47;;;28.42;100.00
9474;BME280;8865;47.636;7.692;2022-09-06T09:44:58;98410.94;;;27.71;100.00
9474;BME280;8865;47.636;7.692;2022-09-06T09:47:29;98408.91;;;27.78;100.00
9474;BME280;8865;47.636;7.692;2022-09-06T09:49:57;98406.56;;;27.82;100.00
9474;BME280;8865;47.636;7.692;2022-09-06T09:52:27;98399.44;;;28.04;100.00
9474;BME280;8865;47.636;7.692;2022-09-06T09:55:00;98405.34;;;27.89;100.00
9474;BME280;8865;47.636;7.692;2022-09-06T09:57:29;98389.63;;;27.98;100.00
9474;BME280;8865;47.636;7.692;2022-09-06T09:59:58;98381.66;;;28.54;100.00
9474;BME280;8865;47.636;7.692;2022-09-06T10:02:34;98370.97;;;29.60;100.00
9474;BME280;8865;47.636;7.692;2022-09-06T10:07:42;98361.59;;;30.59;100.00
9474;BME280;8865;47.636;7.692;2022-09-06T10:10:13;98362.94;;;30.24;96.86
9474;BME280;8865;47.636;7.692;2022-09-06T10:12:41;98358.59;;;30.56;98.51
9474;BME280;8865;47.636;7.692;2022-09-06T10:15:10;98361.78;;;30.48;93.61
9474;BME280;8865;47.636;7.692;2022-09-06T10:17:48;98361.34;;;31.09;94.36
9474;BME280;8865;47.636;7.692;2022-09-06T10:20:15;98351.78;;;33.53;81.14
9474;BME280;8865;47.636;7.692;2022-09-06T10:25:43;98366.38;;;38.09;52.72
9474;BME280;8865;47.636;7.692;2022-09-06T10:30:45;98382.41;;;36.54;55.20
9474;BME280;8865;47.636;7.692;2022-09-06T10:36:13;98368.66;;;33.95;62.40
9474;BME280;8865;47.636;7.692;2022-09-06T10:38:56;98365.56;;;33.07;73.17
9474;BME280;8865;47.636;7.692;2022-09-06T10:41:51;98365.94;;;32.13;74.27
9474;BME280;8865;47.636;7.692;2022-09-06T10:47:10;98369.84;;;30.85;93.60
9474;BME280;8865;47.636;7.692;2022-09-06T10:49:37;98368.03;;;30.21;91.99
9474;BME280;8865;47.636;7.692;2022-09-06T10:52:08;98378.28;;;29.64;94.24
9474;BME280;8865;47.636;7.692;2022-09-06T10:54:38;98378.63;;;29.24;100.00
9474;BME280;8865;47.636;7.692;2022-09-06T10:57:21;98372.75;;;28.88;100.00
9474;BME280;8865;47.636;7.692;2022-09-06T10:59:58;98372.03;;;28.58;100.00
9474;BME280;8865;47.636;7.692;2022-09-06T11:02:47;98379.78;;;28.21;100.00
9474;BME280;8865;47.636;7.692;2022-09-06T11:05:23;98375.75;;;27.89;100.00
9474;BME280;8865;47.636;7.692;2022-09-06T11:08:01;98377.16;;;27.63;100.00
9474;BME280;8865;47.636;7.692;2022-09-06T11:10:32;98370.91;;;27.34;100.00
9474;BME280;8865;47.636;7.692;2022-09-06T11:13:03;98377.38;;;27.09;100.00
9474;BME280;8865;47.636;7.692;2022-09-06T11:15:40;98382.22;;;26.83;100.00
9474;BME280;8865;47.636;7.692;2022-09-06T11:23:47;98402.31;;;26.15;100.00
9474;BME280;8865;47.636;7.692;2022-09-06T11:26:38;98409.75;;;26.01;100.00
9474;BME280;8865;47.636;7.692;2022-09-06T11:29:15;98403.59;;;25.82;100.00
9474;BME280;8865;47.636;7.692;2022-09-06T11:31:54;98408.91;;;25.70;100.00
9474;BME280;8865;47.636;7.692;2022-09-06T11:34:28;98412.00;;;25.55;100.00
9474;BME280;8865;47.636;7.692;2022-09-06T11:36:57;98415.88;;;25.41;100.00
9474;BME280;8865;47.636;7.692;2022-09-06T11:40:27;98423.84;;;25.29;100.00
9474;BME280;8865;47.636;7.692;2022-09-06T11:43:40;98433.44;;;25.18;100.00
9474;BME280;8865;47.636;7.692;2022-09-06T11:45:45;98446.75;;;25.06;100.00
9474;BME280;8865;47.636;7.692;2022-09-06T11:48:30;98456.72;;;24.99;100.00
9474;BME280;8865;47.636;7.692;2022-09-06T11:51:07;98463.34;;;24.96;100.00
9474;BME280;8865;47.636;7.692;2022-09-06T11:57:08;98473.91;;;24.91;100.00
9474;BME280;8865;47.636;7.692;2022-09-06T12:04:21;98469.09;;;24.75;100.00
9474;BME280;8865;47.636;7.692;2022-09-06T12:07:12;98455.09;;;24.73;100.00
9474;BME280;8865;47.636;7.692;2022-09-06T12:09:42;98452.88;;;24.70;100.00
9474;BME280;8865;47.636;7.692;2022-09-06T12:12:09;98452.25;;;24.68;100.00
9474;BME280;8865;47.636;7.692;2022-09-06T12:14:41;98455.91;;;24.73;100.00
9474;BME280;8865;47.636;7.692;2022-09-06T12:24:57;98431.47;;;24.88;100.00
9474;BME280;8865;47.636;7.692;2022-09-06T12:27:26;98422.56;;;24.94;100.00
9474;BME280;8865;47.636;7.692;2022-09-06T12:32:26;98419.66;;;24.96;100.00
9474;BME280;8865;47.636;7.692;2022-09-06T12:34:54;98410.03;;;24.88;100.00
9474;BME280;8865;47.636;7.692;2022-09-06T12:37:33;98400.88;;;24.77;100.00
9474;BME280;8865;47.636;7.692;2022-09-06T12:40:04;98373.63;;;24.62;100.00
9474;BME280;8865;47.636;7.692;2022-09-06T12:42:32;98352.16;;;24.37;100.00
9474;BME280;8865;47.636;7.692;2022-09-06T12:45:02;98348.47;;;24.38;100.00
9474;BME280;8865;47.636;7.692;2022-09-06T12:47:34;98380.28;;;24.46;100.00
9474;BME280;8865;47.636;7.692;2022-09-06T12:52:45;98403.28;;;24.60;100.00
9474;BME280;8865;47.636;7.692;2022-09-06T12:55:21;98389.84;;;24.86;100.00
9474;BME280;8865;47.636;7.692;2022-09-06T12:57:53;98381.16;;;25.09;100.00
9474;BME280;8865;47.636;7.692;2022-09-06T13:00:20;98376.13;;;25.38;100.00
9474;BME280;8865;47.636;7.692;2022-09-06T13:03:01;98362.22;;;25.59;100.00
9474;BME280;8865;47.636;7.692;2022-09-06T13:05:29;98363.72;;;25.85;100.00
9474;BME280;8865;47.636;7.692;2022-09-06T13:07:59;98350.75;;;26.13;100.00
9474;BME280;8865;47.636;7.692;2022-09-06T13:10:28;98354.13;;;26.32;100.00
9474;BME280;8865;47.636;7.692;2022-09-06T13:12:56;98339.91;;;26.43;100.00
9474;BME280;8865;47.636;7.692;2022-09-06T13:15:28;98327.75;;;26.41;100.00
9474;BME280;8865;47.636;7.692;2022-09-06T13:18:33;98337.31;;;26.25;100.00
9474;BME280;8865;47.636;7.692;2022-09-06T13:21:03;98345.94;;;26.15;100.00
9474;BME280;8865;47.636;7.692;2022-09-06T13:23:44;98338.00;;;26.08;100.00
9474;BME280;8865;47.636;7.692;2022-09-06T13:26:13;98338.81;;;26.09;100.00
9474;BME280;8865;47.636;7.692;2022-09-06T13:28:39;98343.00;;;26.05;100.00
9474;BME280;8865;47.636;7.692;2022-09-06T13:31:18;98341.44;;;25.97;100.00
9474;BME280;8865;47.636;7.692;2022-09-06T13:33:54;98347.25;;;25.82;100.00
9474;BME280;8865;47.636;7.692;2022-09-06T13:36:24;98333.75;;;25.58;100.00
9474;BME280;8865;47.636;7.692;2022-09-06T13:38:51;98342.69;;;25.40;100.00
9474;BME280;8865;47.636;7.692;2022-09-06T13:43:56;98341.50;;;24.99;100.00
9474;BME280;8865;47.636;7.692;2022-09-06T13:46:23;98361.63;;;24.83;100.00
9474;BME280;8865;47.636;7.692;2022-09-06T13:48:53;98368.47;;;24.60;100.00
9474;BME280;8865;47.636;7.692;2022-09-06T13:51:19;98362.28;;;24.35;100.00
9474;BME280;8865;47.636;7.692;2022-09-06T13:53:45;98364.50;;;24.13;100.00
9474;BME280;8865;47.636;7.692;2022-09-06T13:56:11;98371.84;;;23.92;100.00
9474;BME280;8865;47.636;7.692;2022-09-06T13:58:37;98382.78;;;23.84;100.00
9474;BME280;8865;47.636;7.692;2022-09-06T14:01:04;98378.09;;;23.72;100.00
9474;BME280;8865;47.636;7.692;2022-09-06T14:03:33;98392.41;;;23.53;100.00
9474;BME280;8865;47.636;7.692;2022-09-06T14:05:59;98383.00;;;23.37;100.00
9474;BME280;8865;47.636;7.692;2022-09-06T14:08:29;98388.97;;;23.39;100.00
9474;BME280;8865;47.636;7.692;2022-09-06T14:10:55;98386.09;;;23.34;100.00
9474;BME280;8865;47.636;7.692;2022-09-06T14:13:21;98388.38;;;23.30;100.00
9474;BME280;8865;47.636;7.692;2022-09-06T14:15:48;98390.22;;;23.36;100.00
9474;BME280;8865;47.636;7.692;2022-09-06T14:18:15;98386.09;;;23.41;100.00
9474;BME280;8865;47.636;7.692;2022-09-06T14:20:41;98382.09;;;23.57;100.00
9474;BME280;8865;47.636;7.692;2022-09-06T14:23:08;98375.66;;;23.71;100.00
9474;BME280;8865;47.636;7.692;2022-09-06T14:25:35;98385.06;;;23.80;100.00
9474;BME280;8865;47.636;7.692;2022-09-06T14:28:05;98367.41;;;23.72;100.00
9474;BME280;8865;47.636;7.692;2022-09-06T14:30:31;98371.94;;;23.72;100.00
9474;BME280;8865;47.636;7.692;2022-09-06T14:32:57;98367.47;;;23.66;100.00
9474;BME280;8865;47.636;7.692;2022-09-06T14:35:23;98361.75;;;23.56;100.00
9474;BME280;8865;47.636;7.692;2022-09-06T14:37:49;98357.69;;;23.46;100.00
9474;BME280;8865;47.636;7.692;2022-09-06T14:40:16;98356.50;;;23.35;100.00
9474;BME280;8865;47.636;7.692;2022-09-06T14:42:42;98346.91;;;23.21;100.00
9474;BME280;8865;47.636;7.692;2022-09-06T14:45:09;98365.00;;;23.12;100.00
9474;BME280;8865;47.636;7.692;2022-09-06T14:47:35;98371.97;;;23.07;100.00
9474;BME280;8865;47.636;7.692;2022-09-06T14:50:01;98374.88;;;22.98;100.00
9474;BME280;8865;47.636;7.692;2022-09-06T14:52:27;98370.97;;;22.94;100.00
9474;BME280;8865;47.636;7.692;2022-09-06T14:54:53;98350.25;;;22.90;100.00
9474;BME280;8865;47.636;7.692;2022-09-06T14:57:19;98325.00;;;22.79;100.00